Knoxville, Tennessee
Current Conditions -  °F | °C
As of 8:53 AM on Thursday 29 Jan 2015 (Local Time) from KTYS Reporting Station
Overcast Overcast  
Wind Chill: -1°   Ceiling: 18000
Heat Index: -1°   Visibility: 10mi
Dew Point: -4°   Wind: 3mph
Humidity: 79%   Direction: 30°NNE
Pressure: 30.18"   Gusts: NA
Location:  35.96°N, 83.92°W
Report Text: KTYS 291353Z 03003KT 10SM SCT130 BKN180 OVC250 M01/M04 A3018 RMK AO2 SLP226 T10111044
Loading
Personal Weather Stations






























Interactive Weather Map New forecast layout! Learn more

10-Day Weather Forecast

Advertisements
Track Severe Weather on mobile